sensor_id;sensor_type;location;lat;lon;timestamp;pressure;altitude;pressure_sealevel;temperature
67599;BMP280;62026;39.230;9.122;2023-08-30T00:00:47;100428.91;;;23.72
67599;BMP280;62026;39.230;9.122;2023-08-30T00:03:13;100432.97;;;23.61
67599;BMP280;62026;39.230;9.122;2023-08-30T00:05:41;100428.19;;;23.58
67599;BMP280;62026;39.230;9.122;2023-08-30T00:08:07;100423.41;;;23.55
67599;BMP280;62026;39.230;9.122;2023-08-30T00:10:33;100420.84;;;23.50
67599;BMP280;62026;39.230;9.122;2023-08-30T00:12:59;100421.00;;;23.45
67599;BMP280;62026;39.230;9.122;2023-08-30T00:15:25;100423.06;;;23.48
67599;BMP280;62026;39.230;9.122;2023-08-30T00:17:51;100422.72;;;23.41
67599;BMP280;62026;39.230;9.122;2023-08-30T00:20:21;100419.66;;;23.34
67599;BMP280;62026;39.230;9.122;2023-08-30T00:22:48;100432.75;;;23.27
67599;BMP280;62026;39.230;9.122;2023-08-30T00:25:15;100428.88;;;23.19
67599;BMP280;62026;39.230;9.122;2023-08-30T00:27:42;100425.50;;;23.13
67599;BMP280;62026;39.230;9.122;2023-08-30T00:30:08;100424.41;;;23.14
67599;BMP280;62026;39.230;9.122;2023-08-30T00:32:35;100412.91;;;23.09
67599;BMP280;62026;39.230;9.122;2023-08-30T00:35:02;100426.59;;;23.12
67599;BMP280;62026;39.230;9.122;2023-08-30T00:37:28;100421.81;;;23.09
67599;BMP280;62026;39.230;9.122;2023-08-30T00:39:54;100419.44;;;23.08
67599;BMP280;62026;39.230;9.122;2023-08-30T00:42:20;100421.31;;;23.07
67599;BMP280;62026;39.230;9.122;2023-08-30T00:44:46;100419.25;;;23.04
67599;BMP280;62026;39.230;9.122;2023-08-30T00:47:12;100419.72;;;23.06
67599;BMP280;62026;39.230;9.122;2023-08-30T00:49:39;100421.31;;;23.07
67599;BMP280;62026;39.230;9.122;2023-08-30T00:52:10;100412.88;;;23.00
67599;BMP280;62026;39.230;9.122;2023-08-30T00:54:37;100410.19;;;23.00
67599;BMP280;62026;39.230;9.122;2023-08-30T00:57:06;100413.97;;;22.99
67599;BMP280;62026;39.230;9.122;2023-08-30T00:59:33;100411.91;;;22.96
67599;BMP280;62026;39.230;9.122;2023-08-30T01:02:00;100408.72;;;22.94
67599;BMP280;62026;39.230;9.122;2023-08-30T01:04:30;100405.81;;;22.91
67599;BMP280;62026;39.230;9.122;2023-08-30T01:06:56;100409.41;;;22.86
67599;BMP280;62026;39.230;9.122;2023-08-30T01:09:23;100407.53;;;22.87
67599;BMP280;62026;39.230;9.122;2023-08-30T01:12:22;100408.91;;;22.84
67599;BMP280;62026;39.230;9.122;2023-08-30T01:15:09;100399.56;;;22.82
67599;BMP280;62026;39.230;9.122;2023-08-30T01:17:39;100398.78;;;22.81
67599;BMP280;62026;39.230;9.122;2023-08-30T01:20:07;100396.09;;;22.81
67599;BMP280;62026;39.230;9.122;2023-08-30T01:23:06;100392.78;;;22.84
67599;BMP280;62026;39.230;9.122;2023-08-30T01:26:20;100392.09;;;22.78
67599;BMP280;62026;39.230;9.122;2023-08-30T01:28:48;100391.41;;;22.73
67599;BMP280;62026;39.230;9.122;2023-08-30T01:31:15;100387.13;;;22.72
67599;BMP280;62026;39.230;9.122;2023-08-30T01:33:42;100384.44;;;22.72
67599;BMP280;62026;39.230;9.122;2023-08-30T01:36:09;100389.31;;;22.70
67599;BMP280;62026;39.230;9.122;2023-08-30T01:38:36;100391.03;;;22.66
67599;BMP280;62026;39.230;9.122;2023-08-30T01:41:04;100385.16;;;22.64
67599;BMP280;62026;39.230;9.122;2023-08-30T01:43:31;100384.84;;;22.65
67599;BMP280;62026;39.230;9.122;2023-08-30T01:45:59;100372.28;;;22.61
67599;BMP280;62026;39.230;9.122;2023-08-30T01:48:27;100370.59;;;22.65
67599;BMP280;62026;39.230;9.122;2023-08-30T01:50:54;100365.31;;;22.60
67599;BMP280;62026;39.230;9.122;2023-08-30T01:53:25;100360.53;;;22.57
67599;BMP280;62026;39.230;9.122;2023-08-30T01:55:52;100363.44;;;22.47
67599;BMP280;62026;39.230;9.122;2023-08-30T01:58:19;100363.75;;;22.45
67599;BMP280;62026;39.230;9.122;2023-08-30T02:00:46;100355.38;;;22.47
67599;BMP280;62026;39.230;9.122;2023-08-30T02:03:13;100359.16;;;22.46
67599;BMP280;62026;39.230;9.122;2023-08-30T02:06:14;100355.66;;;22.45
67599;BMP280;62026;39.230;9.122;2023-08-30T02:09:01;100352.00;;;22.41
67599;BMP280;62026;39.230;9.122;2023-08-30T02:11:32;100351.16;;;22.40
67599;BMP280;62026;39.230;9.122;2023-08-30T02:14:04;100350.00;;;22.47
67599;BMP280;62026;39.230;9.122;2023-08-30T02:16:33;100352.38;;;22.48
67599;BMP280;62026;39.230;9.122;2023-08-30T02:19:00;100349.00;;;22.43
67599;BMP280;62026;39.230;9.122;2023-08-30T02:21:27;100348.41;;;22.46
67599;BMP280;62026;39.230;9.122;2023-08-30T02:23:54;100345.72;;;22.46
67599;BMP280;62026;39.230;9.122;2023-08-30T02:26:20;100345.72;;;22.46
67599;BMP280;62026;39.230;9.122;2023-08-30T02:28:47;100335.56;;;22.43
67599;BMP280;62026;39.230;9.122;2023-08-30T02:31:13;100345.22;;;22.44
67599;BMP280;62026;39.230;9.122;2023-08-30T02:33:39;100345.72;;;22.46
67599;BMP280;62026;39.230;9.122;2023-08-30T02:36:05;100342.63;;;22.38
67599;BMP280;62026;39.230;9.122;2023-08-30T02:38:31;100345.78;;;22.40
67599;BMP280;62026;39.230;9.122;2023-08-30T02:40:57;100344.44;;;22.43
67599;BMP280;62026;39.230;9.122;2023-08-30T02:43:23;100343.72;;;22.37
67599;BMP280;62026;39.230;9.122;2023-08-30T02:45:50;100347.03;;;22.34
67599;BMP280;62026;39.230;9.122;2023-08-30T02:48:18;100344.72;;;22.42
67599;BMP280;62026;39.230;9.122;2023-08-30T02:50:44;100351.69;;;22.43
67599;BMP280;62026;39.230;9.122;2023-08-30T02:53:10;100347.41;;;22.42
67599;BMP280;62026;39.230;9.122;2023-08-30T02:55:36;100334.34;;;22.49
67599;BMP280;62026;39.230;9.122;2023-08-30T02:58:02;100340.81;;;22.48
67599;BMP280;62026;39.230;9.122;2023-08-30T03:00:28;100339.72;;;22.49
67599;BMP280;62026;39.230;9.122;2023-08-30T03:02:56;100343.41;;;22.53
67599;BMP280;62026;39.230;9.122;2023-08-30T03:05:22;100336.91;;;22.54
67599;BMP280;62026;39.230;9.122;2023-08-30T03:07:49;100329.66;;;22.54
67599;BMP280;62026;39.230;9.122;2023-08-30T03:10:17;100327.75;;;22.55
67599;BMP280;62026;39.230;9.122;2023-08-30T03:12:43;100332.41;;;22.63
67599;BMP280;62026;39.230;9.122;2023-08-30T03:15:09;100339.03;;;22.57
67599;BMP280;62026;39.230;9.122;2023-08-30T03:17:36;100341.84;;;22.52
67599;BMP280;62026;39.230;9.122;2023-08-30T03:20:03;100349.16;;;22.60
67599;BMP280;62026;39.230;9.122;2023-08-30T03:22:31;100343.00;;;22.59
67599;BMP280;62026;39.230;9.122;2023-08-30T03:24:57;100337.63;;;22.59
67599;BMP280;62026;39.230;9.122;2023-08-30T03:27:23;100342.00;;;22.55
67599;BMP280;62026;39.230;9.122;2023-08-30T03:29:49;100342.22;;;22.59
67599;BMP280;62026;39.230;9.122;2023-08-30T03:32:17;100346.78;;;22.58
67599;BMP280;62026;39.230;9.122;2023-08-30T03:34:48;100348.47;;;22.54
67599;BMP280;62026;39.230;9.122;2023-08-30T03:37:15;100344.19;;;22.67
67599;BMP280;62026;39.230;9.122;2023-08-30T03:39:41;100347.19;;;22.65
67599;BMP280;62026;39.230;9.122;2023-08-30T03:42:08;100345.38;;;22.61
67599;BMP280;62026;39.230;9.122;2023-08-30T03:44:34;100346.47;;;22.60
67599;BMP280;62026;39.230;9.122;2023-08-30T03:47:00;100345.78;;;22.54
67599;BMP280;62026;39.230;9.122;2023-08-30T03:49:26;100343.41;;;22.53
67599;BMP280;62026;39.230;9.122;2023-08-30T03:51:52;100346.59;;;22.55
67599;BMP280;62026;39.230;9.122;2023-08-30T03:54:18;100351.16;;;22.54
67599;BMP280;62026;39.230;9.122;2023-08-30T03:56:45;100347.88;;;22.57
67599;BMP280;62026;39.230;9.122;2023-08-30T03:59:12;100351.09;;;22.59
67599;BMP280;62026;39.230;9.122;2023-08-30T04:01:38;100345.00;;;22.54
67599;BMP280;62026;39.230;9.122;2023-08-30T04:04:05;100356.38;;;22.51
67599;BMP280;62026;39.230;9.122;2023-08-30T04:06:31;100354.16;;;22.53
67599;BMP280;62026;39.230;9.122;2023-08-30T04:08:57;100360.16;;;22.50
67599;BMP280;62026;39.230;9.122;2023-08-30T04:11:23;100359.66;;;22.48
67599;BMP280;62026;39.230;9.122;2023-08-30T04:13:49;100360.66;;;22.52
67599;BMP280;62026;39.230;9.122;2023-08-30T04:16:15;100360.16;;;22.50
67599;BMP280;62026;39.230;9.122;2023-08-30T04:18:41;100362.94;;;22.58
67599;BMP280;62026;39.230;9.122;2023-08-30T04:21:07;100356.94;;;22.61
67599;BMP280;62026;39.230;9.122;2023-08-30T04:23:34;100367.09;;;22.64
67599;BMP280;62026;39.230;9.122;2023-08-30T04:26:01;100362.53;;;22.65
67599;BMP280;62026;39.230;9.122;2023-08-30T04:28:27;100360.00;;;22.68
67599;BMP280;62026;39.230;9.122;2023-08-30T04:30:55;100364.28;;;22.69
67599;BMP280;62026;39.230;9.122;2023-08-30T04:33:21;100371.19;;;22.62
67599;BMP280;62026;39.230;9.122;2023-08-30T04:35:54;100366.31;;;22.64
67599;BMP280;62026;39.230;9.122;2023-08-30T04:38:21;100363.41;;;22.60
67599;BMP280;62026;39.230;9.122;2023-08-30T04:40:48;100355.94;;;22.71
67599;BMP280;62026;39.230;9.122;2023-08-30T04:43:15;100361.31;;;22.71
67599;BMP280;62026;39.230;9.122;2023-08-30T04:45:41;100367.00;;;22.69
67599;BMP280;62026;39.230;9.122;2023-08-30T04:48:08;100364.72;;;22.63
67599;BMP280;62026;39.230;9.122;2023-08-30T04:50:34;100366.91;;;22.61
67599;BMP280;62026;39.230;9.122;2023-08-30T04:53:01;100371.56;;;22.69
67599;BMP280;62026;39.230;9.122;2023-08-30T04:55:30;100374.25;;;22.69
67599;BMP280;62026;39.230;9.122;2023-08-30T04:57:58;100378.84;;;22.68
67599;BMP280;62026;39.230;9.122;2023-08-30T05:00:28;100378.75;;;22.60
67599;BMP280;62026;39.230;9.122;2023-08-30T05:02:54;100380.84;;;22.63
67599;BMP280;62026;39.230;9.122;2023-08-30T05:05:20;100388.44;;;22.61
67599;BMP280;62026;39.230;9.122;2023-08-30T05:07:46;100391.44;;;22.59
67599;BMP280;62026;39.230;9.122;2023-08-30T05:10:13;100400.91;;;22.57
67599;BMP280;62026;39.230;9.122;2023-08-30T05:12:39;100396.50;;;22.61
67599;BMP280;62026;39.230;9.122;2023-08-30T05:15:05;100394.81;;;22.65
67599;BMP280;62026;39.230;9.122;2023-08-30T05:17:32;100394.13;;;22.59
67599;BMP280;62026;39.230;9.122;2023-08-30T05:19:59;100399.19;;;22.74
67599;BMP280;62026;39.230;9.122;2023-08-30T05:22:25;100399.38;;;22.78
67599;BMP280;62026;39.230;9.122;2023-08-30T05:24:51;100404.38;;;22.71
67599;BMP280;62026;39.230;9.122;2023-08-30T05:27:17;100414.16;;;22.67
67599;BMP280;62026;39.230;9.122;2023-08-30T05:29:44;100412.19;;;22.59
67599;BMP280;62026;39.230;9.122;2023-08-30T05:32:10;100421.66;;;22.43
67599;BMP280;62026;39.230;9.122;2023-08-30T05:34:46;100415.56;;;22.51
67599;BMP280;62026;39.230;9.122;2023-08-30T05:37:24;100414.75;;;22.36
67599;BMP280;62026;39.230;9.122;2023-08-30T05:40:23;100418.16;;;22.28
67599;BMP280;62026;39.230;9.122;2023-08-30T05:42:50;100420.03;;;22.14
67599;BMP280;62026;39.230;9.122;2023-08-30T05:45:16;100435.47;;;22.22
67599;BMP280;62026;39.230;9.122;2023-08-30T05:47:42;100434.56;;;22.40
67599;BMP280;62026;39.230;9.122;2023-08-30T05:50:08;100436.06;;;22.33
67599;BMP280;62026;39.230;9.122;2023-08-30T05:52:35;100437.97;;;22.32
67599;BMP280;62026;39.230;9.122;2023-08-30T05:55:01;100441.75;;;22.31
67599;BMP280;62026;39.230;9.122;2023-08-30T05:57:28;100441.75;;;22.31
67599;BMP280;62026;39.230;9.122;2023-08-30T05:59:59;100445.06;;;22.42
67599;BMP280;62026;39.230;9.122;2023-08-30T06:02:26;100447.84;;;22.51
67599;BMP280;62026;39.230;9.122;2023-08-30T06:04:52;100447.31;;;22.76
67599;BMP280;62026;39.230;9.122;2023-08-30T06:07:18;100448.59;;;22.92
67599;BMP280;62026;39.230;9.122;2023-08-30T06:09:44;100449.19;;;23.03
67599;BMP280;62026;39.230;9.122;2023-08-30T06:12:10;100441.66;;;23.13
67599;BMP280;62026;39.230;9.122;2023-08-30T06:14:36;100443.16;;;23.20
67599;BMP280;62026;39.230;9.122;2023-08-30T06:17:02;100448.03;;;23.17
67599;BMP280;62026;39.230;9.122;2023-08-30T06:19:28;100447.50;;;23.29
67599;BMP280;62026;39.230;9.122;2023-08-30T06:21:54;100453.44;;;23.40
67599;BMP280;62026;39.230;9.122;2023-08-30T06:24:21;100455.59;;;23.51
67599;BMP280;62026;39.230;9.122;2023-08-30T06:26:47;100444.88;;;23.60
67599;BMP280;62026;39.230;9.122;2023-08-30T06:29:13;100449.28;;;23.78
67599;BMP280;62026;39.230;9.122;2023-08-30T06:31:39;100456.66;;;23.95
67599;BMP280;62026;39.230;9.122;2023-08-30T06:34:07;100450.88;;;24.19
67599;BMP280;62026;39.230;9.122;2023-08-30T06:36:33;100455.31;;;24.23
67599;BMP280;62026;39.230;9.122;2023-08-30T06:38:59;100453.28;;;24.29
67599;BMP280;62026;39.230;9.122;2023-08-30T06:41:25;100450.50;;;24.51
67599;BMP280;62026;39.230;9.122;2023-08-30T06:43:51;100451.53;;;24.81
67599;BMP280;62026;39.230;9.122;2023-08-30T06:46:17;100457.41;;;25.00
67599;BMP280;62026;39.230;9.122;2023-08-30T06:48:43;100456.75;;;25.21
67599;BMP280;62026;39.230;9.122;2023-08-30T06:51:09;100454.72;;;25.26
67599;BMP280;62026;39.230;9.122;2023-08-30T06:53:36;100455.00;;;25.33
67599;BMP280;62026;39.230;9.122;2023-08-30T06:56:02;100458.16;;;25.52
67599;BMP280;62026;39.230;9.122;2023-08-30T06:58:29;100455.13;;;25.63
67599;BMP280;62026;39.230;9.122;2023-08-30T07:00:57;100451.88;;;25.78
67599;BMP280;62026;39.230;9.122;2023-08-30T07:03:23;100461.88;;;25.86
67599;BMP280;62026;39.230;9.122;2023-08-30T07:05:51;100460.59;;;25.92
67599;BMP280;62026;39.230;9.122;2023-08-30T07:08:17;100460.66;;;26.13
67599;BMP280;62026;39.230;9.122;2023-08-30T07:10:43;100462.56;;;26.42
67599;BMP280;62026;39.230;9.122;2023-08-30T07:13:09;100466.69;;;26.48
67599;BMP280;62026;39.230;9.122;2023-08-30T07:15:42;100455.09;;;26.68
67599;BMP280;62026;39.230;9.122;2023-08-30T07:18:09;100447.00;;;26.80
67599;BMP280;62026;39.230;9.122;2023-08-30T07:20:36;100451.09;;;26.86
67599;BMP280;62026;39.230;9.122;2023-08-30T07:23:03;100448.31;;;27.15
67599;BMP280;62026;39.230;9.122;2023-08-30T07:25:32;100442.47;;;27.26
67599;BMP280;62026;39.230;9.122;2023-08-30T07:28:03;100447.69;;;27.43
67599;BMP280;62026;39.230;9.122;2023-08-30T07:30:30;100452.00;;;27.56
67599;BMP280;62026;39.230;9.122;2023-08-30T07:32:56;100447.38;;;27.56
67599;BMP280;62026;39.230;9.122;2023-08-30T07:35:22;100443.09;;;27.10
67599;BMP280;62026;39.230;9.122;2023-08-30T07:37:48;100454.63;;;27.19
67599;BMP280;62026;39.230;9.122;2023-08-30T07:40:14;100447.34;;;27.32
67599;BMP280;62026;39.230;9.122;2023-08-30T07:42:40;100449.25;;;27.44
67599;BMP280;62026;39.230;9.122;2023-08-30T07:45:07;100448.44;;;27.64
67599;BMP280;62026;39.230;9.122;2023-08-30T07:47:33;100461.34;;;27.91
67599;BMP280;62026;39.230;9.122;2023-08-30T07:49:59;100454.75;;;28.04
67599;BMP280;62026;39.230;9.122;2023-08-30T07:52:25;100452.50;;;27.94
67599;BMP280;62026;39.230;9.122;2023-08-30T07:54:51;100458.16;;;27.77
67599;BMP280;62026;39.230;9.122;2023-08-30T07:57:17;100444.50;;;27.98
67599;BMP280;62026;39.230;9.122;2023-08-30T07:59:43;100453.66;;;28.05
67599;BMP280;62026;39.230;9.122;2023-08-30T08:02:09;100459.50;;;27.95
67599;BMP280;62026;39.230;9.122;2023-08-30T08:04:35;100454.75;;;27.80
67599;BMP280;62026;39.230;9.122;2023-08-30T08:07:02;100456.81;;;28.07
67599;BMP280;62026;39.230;9.122;2023-08-30T08:09:29;100452.59;;;27.74
67599;BMP280;62026;39.230;9.122;2023-08-30T08:11:55;100460.97;;;27.81
67599;BMP280;62026;39.230;9.122;2023-08-30T08:14:23;100464.72;;;27.88
67599;BMP280;62026;39.230;9.122;2023-08-30T08:16:49;100447.09;;;27.94
67599;BMP280;62026;39.230;9.122;2023-08-30T08:19:16;100447.94;;;28.35
67599;BMP280;62026;39.230;9.122;2023-08-30T08:21:42;100450.28;;;28.48
67599;BMP280;62026;39.230;9.122;2023-08-30T08:24:08;100455.63;;;28.45
67599;BMP280;62026;39.230;9.122;2023-08-30T08:26:34;100461.50;;;28.47
67599;BMP280;62026;39.230;9.122;2023-08-30T08:29:00;100460.84;;;28.66
67599;BMP280;62026;39.230;9.122;2023-08-30T08:31:26;100466.00;;;28.67
67599;BMP280;62026;39.230;9.122;2023-08-30T08:34:09;100460.81;;;28.62
67599;BMP280;62026;39.230;9.122;2023-08-30T08:36:37;100466.00;;;28.55
67599;BMP280;62026;39.230;9.122;2023-08-30T08:39:04;100468.72;;;28.67
67599;BMP280;62026;39.230;9.122;2023-08-30T08:41:44;100475.19;;;28.50
67599;BMP280;62026;39.230;9.122;2023-08-30T08:44:12;100478.38;;;28.80
67599;BMP280;62026;39.230;9.122;2023-08-30T08:46:40;100473.84;;;28.84
67599;BMP280;62026;39.230;9.122;2023-08-30T08:49:13;100470.19;;;28.92
67599;BMP280;62026;39.230;9.122;2023-08-30T08:51:40;100474.03;;;29.19
67599;BMP280;62026;39.230;9.122;2023-08-30T08:54:09;100479.75;;;29.02
67599;BMP280;62026;39.230;9.122;2023-08-30T08:56:36;100481.84;;;29.21
67599;BMP280;62026;39.230;9.122;2023-08-30T08:59:03;100472.75;;;28.73
67599;BMP280;62026;39.230;9.122;2023-08-30T09:01:33;100480.13;;;29.01
67599;BMP280;62026;39.230;9.122;2023-08-30T09:04:08;100474.06;;;28.91
67599;BMP280;62026;39.230;9.122;2023-08-30T09:06:36;100486.50;;;28.92
67599;BMP280;62026;39.230;9.122;2023-08-30T09:09:03;100485.59;;;29.16
67599;BMP280;62026;39.230;9.122;2023-08-30T09:11:30;100475.25;;;29.22
67599;BMP280;62026;39.230;9.122;2023-08-30T09:13:56;100476.75;;;29.19
67599;BMP280;62026;39.230;9.122;2023-08-30T09:16:22;100490.00;;;29.21
67599;BMP280;62026;39.230;9.122;2023-08-30T09:19:02;100471.97;;;29.75
67599;BMP280;62026;39.230;9.122;2023-08-30T09:21:29;100476.28;;;29.45
67599;BMP280;62026;39.230;9.122;2023-08-30T09:24:04;100478.72;;;29.34
67599;BMP280;62026;39.230;9.122;2023-08-30T09:26:32;100484.19;;;29.50
67599;BMP280;62026;39.230;9.122;2023-08-30T09:29:06;100479.56;;;29.23
67599;BMP280;62026;39.230;9.122;2023-08-30T09:31:37;100459.66;;;29.66
67599;BMP280;62026;39.230;9.122;2023-08-30T09:34:04;100473.41;;;29.26
67599;BMP280;62026;39.230;9.122;2023-08-30T09:36:48;100470.69;;;29.26
67599;BMP280;62026;39.230;9.122;2023-08-30T09:39:15;100476.81;;;29.51
67599;BMP280;62026;39.230;9.122;2023-08-30T09:41:47;100473.88;;;29.91
67599;BMP280;62026;39.230;9.122;2023-08-30T09:44:21;100468.69;;;29.54
67599;BMP280;62026;39.230;9.122;2023-08-30T09:46:53;100471.88;;;29.56
67599;BMP280;62026;39.230;9.122;2023-08-30T09:49:24;100471.56;;;29.93
67599;BMP280;62026;39.230;9.122;2023-08-30T09:51:52;100466.34;;;29.68
67599;BMP280;62026;39.230;9.122;2023-08-30T09:54:21;100466.53;;;29.60
67599;BMP280;62026;39.230;9.122;2023-08-30T09:56:47;100460.00;;;29.49
67599;BMP280;62026;39.230;9.122;2023-08-30T09:59:14;100460.78;;;29.49
67599;BMP280;62026;39.230;9.122;2023-08-30T10:01:46;100465.59;;;29.87
67599;BMP280;62026;39.230;9.122;2023-08-30T10:04:15;100460.19;;;29.71
67599;BMP280;62026;39.230;9.122;2023-08-30T10:06:41;100468.38;;;29.71
67599;BMP280;62026;39.230;9.122;2023-08-30T10:09:08;100460.69;;;29.93
67599;BMP280;62026;39.230;9.122;2023-08-30T10:11:38;100459.94;;;29.76
67599;BMP280;62026;39.230;9.122;2023-08-30T10:14:06;100450.97;;;29.76
67599;BMP280;62026;39.230;9.122;2023-08-30T10:16:43;100459.50;;;29.59
67599;BMP280;62026;39.230;9.122;2023-08-30T10:19:23;100458.97;;;29.53
67599;BMP280;62026;39.230;9.122;2023-08-30T10:22:10;100462.72;;;29.96
67599;BMP280;62026;39.230;9.122;2023-08-30T10:24:49;100455.84;;;29.86
67599;BMP280;62026;39.230;9.122;2023-08-30T10:27:17;100453.63;;;29.57
67599;BMP280;62026;39.230;9.122;2023-08-30T10:29:47;100452.38;;;29.54
67599;BMP280;62026;39.230;9.122;2023-08-30T10:32:22;100462.72;;;29.64
67599;BMP280;62026;39.230;9.122;2023-08-30T10:34:50;100464.16;;;29.27
67599;BMP280;62026;39.230;9.122;2023-08-30T10:37:16;100464.69;;;29.05
67599;BMP280;62026;39.230;9.122;2023-08-30T10:39:48;100463.19;;;28.91
67599;BMP280;62026;39.230;9.122;2023-08-30T10:42:16;100467.13;;;28.94
67599;BMP280;62026;39.230;9.122;2023-08-30T10:44:52;100467.44;;;28.77
67599;BMP280;62026;39.230;9.122;2023-08-30T10:47:29;100469.91;;;28.82
67599;BMP280;62026;39.230;9.122;2023-08-30T10:49:59;100476.13;;;28.82
67599;BMP280;62026;39.230;9.122;2023-08-30T10:52:30;100480.16;;;28.61
67599;BMP280;62026;39.230;9.122;2023-08-30T10:55:15;100486.56;;;28.68
67599;BMP280;62026;39.230;9.122;2023-08-30T10:57:45;100486.00;;;28.75
67599;BMP280;62026;39.230;9.122;2023-08-30T11:00:21;100477.34;;;28.85
67599;BMP280;62026;39.230;9.122;2023-08-30T11:02:51;100471.69;;;28.90
67599;BMP280;62026;39.230;9.122;2023-08-30T11:05:22;100478.16;;;28.85
67599;BMP280;62026;39.230;9.122;2023-08-30T11:07:50;100481.91;;;29.09
67599;BMP280;62026;39.230;9.122;2023-08-30T11:10:18;100475.63;;;29.20
67599;BMP280;62026;39.230;9.122;2023-08-30T11:12:45;100483.22;;;28.87
67599;BMP280;62026;39.230;9.122;2023-08-30T11:15:13;100484.16;;;28.79
67599;BMP280;62026;39.230;9.122;2023-08-30T11:17:44;100467.31;;;28.73
67599;BMP280;62026;39.230;9.122;2023-08-30T11:20:16;100473.44;;;28.70
67599;BMP280;62026;39.230;9.122;2023-08-30T11:22:47;100474.16;;;28.67
67599;BMP280;62026;39.230;9.122;2023-08-30T11:25:15;100472.09;;;28.64
67599;BMP280;62026;39.230;9.122;2023-08-30T11:27:42;100474.16;;;28.55
67599;BMP280;62026;39.230;9.122;2023-08-30T11:30:10;100474.16;;;28.67
67599;BMP280;62026;39.230;9.122;2023-08-30T11:32:38;100466.94;;;28.59
67599;BMP280;62026;39.230;9.122;2023-08-30T11:35:06;100469.34;;;28.76
67599;BMP280;62026;39.230;9.122;2023-08-30T11:37:33;100468.44;;;28.72
67599;BMP280;62026;39.230;9.122;2023-08-30T11:40:00;100466.00;;;28.55
67599;BMP280;62026;39.230;9.122;2023-08-30T11:42:27;100459.91;;;28.58
67599;BMP280;62026;39.230;9.122;2023-08-30T11:44:53;100471.22;;;28.48
67599;BMP280;62026;39.230;9.122;2023-08-30T11:47:23;100476.78;;;28.51
67599;BMP280;62026;39.230;9.122;2023-08-30T11:49:52;100472.38;;;28.59
67599;BMP280;62026;39.230;9.122;2023-08-30T11:52:19;100464.66;;;28.49
67599;BMP280;62026;39.230;9.122;2023-08-30T11:54:50;100467.38;;;28.61
67599;BMP280;62026;39.230;9.122;2023-08-30T11:57:16;100466.88;;;28.71
67599;BMP280;62026;39.230;9.122;2023-08-30T11:59:43;100465.13;;;28.51
67599;BMP280;62026;39.230;9.122;2023-08-30T12:02:09;100461.06;;;28.45
67599;BMP280;62026;39.230;9.122;2023-08-30T12:04:43;100460.16;;;28.41
67599;BMP280;62026;39.230;9.122;2023-08-30T12:07:09;100450.00;;;28.38
67599;BMP280;62026;39.230;9.122;2023-08-30T12:09:36;100449.78;;;28.31
67599;BMP280;62026;39.230;9.122;2023-08-30T12:12:23;100447.28;;;28.26
67599;BMP280;62026;39.230;9.122;2023-08-30T12:14:56;100456.13;;;28.23
67599;BMP280;62026;39.230;9.122;2023-08-30T12:17:23;100458.34;;;28.33
67599;BMP280;62026;39.230;9.122;2023-08-30T12:19:58;100454.72;;;28.41
67599;BMP280;62026;39.230;9.122;2023-08-30T12:22:38;100451.81;;;28.22
67599;BMP280;62026;39.230;9.122;2023-08-30T12:25:19;100458.72;;;28.19
67599;BMP280;62026;39.230;9.122;2023-08-30T12:27:47;100457.91;;;28.19
67599;BMP280;62026;39.230;9.122;2023-08-30T12:30:16;100447.84;;;28.19
67599;BMP280;62026;39.230;9.122;2023-08-30T12:32:44;100446.16;;;28.15
67599;BMP280;62026;39.230;9.122;2023-08-30T12:35:10;100452.25;;;28.12
67599;BMP280;62026;39.230;9.122;2023-08-30T12:37:36;100455.47;;;28.14
67599;BMP280;62026;39.230;9.122;2023-08-30T12:40:03;100458.63;;;28.16
67599;BMP280;62026;39.230;9.122;2023-08-30T12:42:29;100453.19;;;28.16
67599;BMP280;62026;39.230;9.122;2023-08-30T12:44:55;100456.22;;;28.14
67599;BMP280;62026;39.230;9.122;2023-08-30T12:47:21;100458.19;;;28.14
67599;BMP280;62026;39.230;9.122;2023-08-30T12:49:47;100457.25;;;28.09
67599;BMP280;62026;39.230;9.122;2023-08-30T12:52:13;100454.28;;;28.27
67599;BMP280;62026;39.230;9.122;2023-08-30T12:54:39;100447.38;;;28.17
67599;BMP280;62026;39.230;9.122;2023-08-30T12:57:05;100458.63;;;28.16
67599;BMP280;62026;39.230;9.122;2023-08-30T12:59:31;100457.25;;;28.22
67599;BMP280;62026;39.230;9.122;2023-08-30T13:01:57;100468.34;;;28.29
67599;BMP280;62026;39.230;9.122;2023-08-30T13:04:23;100472.63;;;28.18
67599;BMP280;62026;39.230;9.122;2023-08-30T13:06:49;100453.97;;;28.16
67599;BMP280;62026;39.230;9.122;2023-08-30T13:09:16;100463.81;;;28.21
67599;BMP280;62026;39.230;9.122;2023-08-30T13:11:42;100464.16;;;28.19
67599;BMP280;62026;39.230;9.122;2023-08-30T13:14:08;100461.75;;;28.18
67599;BMP280;62026;39.230;9.122;2023-08-30T13:16:34;100453.19;;;28.16
67599;BMP280;62026;39.230;9.122;2023-08-30T13:19:01;100454.78;;;28.17
67599;BMP280;62026;39.230;9.122;2023-08-30T13:21:27;100465.84;;;28.24
67599;BMP280;62026;39.230;9.122;2023-08-30T13:23:53;100458.34;;;28.33
67599;BMP280;62026;39.230;9.122;2023-08-30T13:26:19;100469.72;;;28.23
67599;BMP280;62026;39.230;9.122;2023-08-30T13:28:45;100459.50;;;28.20
67599;BMP280;62026;39.230;9.122;2023-08-30T13:31:11;100472.63;;;28.18
67599;BMP280;62026;39.230;9.122;2023-08-30T13:33:36;100464.03;;;28.28
67599;BMP280;62026;39.230;9.122;2023-08-30T13:36:03;100472.63;;;28.18
67599;BMP280;62026;39.230;9.122;2023-08-30T13:38:29;100471.25;;;28.12
67599;BMP280;62026;39.230;9.122;2023-08-30T13:40:59;100457.50;;;28.17
67599;BMP280;62026;39.230;9.122;2023-08-30T13:43:30;100475.00;;;28.19
67599;BMP280;62026;39.230;9.122;2023-08-30T13:45:58;100468.34;;;28.29
67599;BMP280;62026;39.230;9.122;2023-08-30T13:48:24;100464.84;;;28.16
67599;BMP280;62026;39.230;9.122;2023-08-30T13:50:51;100468.56;;;28.24
67599;BMP280;62026;39.230;9.122;2023-08-30T13:53:17;100465.72;;;28.20
67599;BMP280;62026;39.230;9.122;2023-08-30T13:55:47;100470.97;;;28.13
67599;BMP280;62026;39.230;9.122;2023-08-30T13:58:15;100463.81;;;28.08
67599;BMP280;62026;39.230;9.122;2023-08-30T14:00:41;100463.63;;;28.14
67599;BMP280;62026;39.230;9.122;2023-08-30T14:03:07;100463.13;;;28.12